YHF weather

Hearst René Fontaine Municipal Airport
Hearst, Ontario, Canada

Public forecast

Using degrees Celsius for public forecast. Weather courtesy of forecast.io.

METAR (pilot weather report)

Closest report is Kapuskasing Airport, 50.8 nm (94.0 km) ESE. Retrieved 2019/05/23 11:00 UTC (3 minutes ago):

CYYU 231100Z 12005KT 15SM FEW044 SCT120 SCT250 09/07 A2984 RMK SC1AC2CI1 SLP113

TAF (pilot weather forecast)

Closest forecast is Kapuskasing Airport, 50.8 nm (94.0 km) ESE. Retrieved 2019/05/23 08:39 UTC (2 hours ago):

TAF CYYU 230738Z 2308/2320 10010KT P6SM OVC030 TEMPO 2308/2311 4SM -RA BR OVC015 FM231100 12007KT P6SM FEW006 SCT030 TEMPO 2311/2313 2SM -RA -DZ BR BKN006 OVC030 PROB30 2311/2313 OVC003 FM231300 12008KT P6SM OVC006 TEMPO 2313/2319 2SM -RA -DZ BR OVC004 FM231900 05007KT P6SM SCT008 OVC012 RMK NXT FCST BY 231400Z